sensor_id;sensor_type;location;lat;lon;timestamp;pressure;altitude;pressure_sealevel;temperature;humidity
61474;BME280;53694;49.784;30.150;2023-02-07T00:00:04;101227.72;;;-3.73;70.20
61474;BME280;53694;49.784;30.150;2023-02-07T00:01:07;101230.93;;;-3.83;70.77
61474;BME280;53694;49.784;30.150;2023-02-07T00:02:09;101226.72;;;-3.90;71.39
61474;BME280;53694;49.784;30.150;2023-02-07T00:03:10;101229.16;;;-3.89;71.76
61474;BME280;53694;49.784;30.150;2023-02-07T00:04:12;101224.80;;;-3.71;71.83
61474;BME280;53694;49.784;30.150;2023-02-07T00:05:14;101226.41;;;-3.40;71.50
61474;BME280;53694;49.784;30.150;2023-02-07T00:06:25;101219.61;;;-3.01;70.76
61474;BME280;53694;49.784;30.150;2023-02-07T00:07:27;101217.13;;;-2.56;69.81
61474;BME280;53694;49.784;30.150;2023-02-07T00:08:29;101216.10;;;-2.03;68.42
61474;BME280;53694;49.784;30.150;2023-02-07T00:09:30;101230.59;;;-1.63;67.02
61474;BME280;53694;49.784;30.150;2023-02-07T00:10:33;101224.92;;;-1.33;66.03
61474;BME280;53694;49.784;30.150;2023-02-07T00:11:37;101212.78;;;-1.19;65.19
61474;BME280;53694;49.784;30.150;2023-02-07T00:12:39;101213.83;;;-1.20;64.68
61474;BME280;53694;49.784;30.150;2023-02-07T00:13:42;101206.06;;;-1.33;64.55
61474;BME280;53694;49.784;30.150;2023-02-07T00:14:43;101214.29;;;-1.57;64.63
61474;BME280;53694;49.784;30.150;2023-02-07T00:15:49;101213.22;;;-1.84;65.26
61474;BME280;53694;49.784;30.150;2023-02-07T00:16:51;101213.78;;;-2.11;66.05
61474;BME280;53694;49.784;30.150;2023-02-07T00:17:52;101208.44;;;-2.34;66.94
61474;BME280;53694;49.784;30.150;2023-02-07T00:18:54;101210.37;;;-2.58;67.70
61474;BME280;53694;49.784;30.150;2023-02-07T00:19:56;101203.72;;;-2.79;68.49
61474;BME280;53694;49.784;30.150;2023-02-07T00:21:05;101205.92;;;-2.99;69.26
61474;BME280;53694;49.784;30.150;2023-02-07T00:22:03;101199.60;;;-3.17;70.12
61474;BME280;53694;49.784;30.150;2023-02-07T00:23:04;101207.12;;;-3.34;70.89
61474;BME280;53694;49.784;30.150;2023-02-07T00:24:06;101207.12;;;-3.49;71.43
61474;BME280;53694;49.784;30.150;2023-02-07T00:25:08;101202.23;;;-3.52;72.13
61474;BME280;53694;49.784;30.150;2023-02-07T00:26:12;101199.09;;;-3.37;72.41
61474;BME280;53694;49.784;30.150;2023-02-07T00:27:14;101195.77;;;-3.09;72.19
61474;BME280;53694;49.784;30.150;2023-02-07T00:28:15;101195.86;;;-2.69;71.62
61474;BME280;53694;49.784;30.150;2023-02-07T00:29:18;101202.23;;;-2.23;70.85
61474;BME280;53694;49.784;30.150;2023-02-07T00:30:20;101196.94;;;-1.78;69.58
61474;BME280;53694;49.784;30.150;2023-02-07T00:31:29;101196.34;;;-1.34;68.27
61474;BME280;53694;49.784;30.150;2023-02-07T00:32:32;101190.48;;;-0.97;66.70
61474;BME280;53694;49.784;30.150;2023-02-07T00:33:35;101192.16;;;-0.74;65.09
61474;BME280;53694;49.784;30.150;2023-02-07T00:34:38;101188.71;;;-0.70;64.73
61474;BME280;53694;49.784;30.150;2023-02-07T00:35:39;101187.02;;;-0.76;64.86
61474;BME280;53694;49.784;30.150;2023-02-07T00:36:41;101185.71;;;-0.90;64.78
61474;BME280;53694;49.784;30.150;2023-02-07T00:37:43;101191.78;;;-1.17;64.45
61474;BME280;53694;49.784;30.150;2023-02-07T00:38:45;101182.04;;;-1.52;65.14
61474;BME280;53694;49.784;30.150;2023-02-07T00:39:47;101189.58;;;-1.82;66.27
61474;BME280;53694;49.784;30.150;2023-02-07T00:40:48;101181.02;;;-2.08;67.27
61474;BME280;53694;49.784;30.150;2023-02-07T00:41:50;101171.93;;;-2.30;68.07
61474;BME280;53694;49.784;30.150;2023-02-07T00:42:51;101175.85;;;-2.49;68.78
61474;BME280;53694;49.784;30.150;2023-02-07T00:43:53;101171.44;;;-2.67;69.48
61474;BME280;53694;49.784;30.150;2023-02-07T00:44:55;101173.43;;;-2.86;70.14
61474;BME280;53694;49.784;30.150;2023-02-07T00:46:02;101167.12;;;-3.04;70.85
61474;BME280;53694;49.784;30.150;2023-02-07T00:47:04;101177.50;;;-3.19;71.53
61474;BME280;53694;49.784;30.150;2023-02-07T00:48:05;101173.64;;;-3.23;72.20
61474;BME280;53694;49.784;30.150;2023-02-07T00:49:07;101177.97;;;-3.10;72.38
61474;BME280;53694;49.784;30.150;2023-02-07T00:50:09;101165.12;;;-2.85;72.27
61474;BME280;53694;49.784;30.150;2023-02-07T00:51:12;101166.72;;;-2.48;71.47
61474;BME280;53694;49.784;30.150;2023-02-07T00:52:14;101175.63;;;-2.08;70.70
61474;BME280;53694;49.784;30.150;2023-02-07T00:53:15;101171.49;;;-1.70;69.54
61474;BME280;53694;49.784;30.150;2023-02-07T00:54:17;101170.54;;;-1.30;68.70
61474;BME280;53694;49.784;30.150;2023-02-07T00:55:18;101171.67;;;-0.92;67.54
61474;BME280;53694;49.784;30.150;2023-02-07T00:56:23;101173.10;;;-0.68;66.41
61474;BME280;53694;49.784;30.150;2023-02-07T00:57:25;101172.65;;;-0.60;65.62
61474;BME280;53694;49.784;30.150;2023-02-07T00:58:26;101171.12;;;-0.72;64.72
61474;BME280;53694;49.784;30.150;2023-02-07T00:59:28;101167.34;;;-0.93;65.12
61474;BME280;53694;49.784;30.150;2023-02-07T01:00:29;101166.11;;;-1.19;65.57
61474;BME280;53694;49.784;30.150;2023-02-07T01:01:31;101168.39;;;-1.45;66.27
61474;BME280;53694;49.784;30.150;2023-02-07T01:02:32;101166.10;;;-1.70;66.82
61474;BME280;53694;49.784;30.150;2023-02-07T01:03:34;101166.67;;;-1.96;67.41
61474;BME280;53694;49.784;30.150;2023-02-07T01:04:35;101164.80;;;-2.24;68.24
61474;BME280;53694;49.784;30.150;2023-02-07T01:05:37;101159.47;;;-2.48;69.15
61474;BME280;53694;49.784;30.150;2023-02-07T01:06:39;101165.22;;;-2.68;69.92
61474;BME280;53694;49.784;30.150;2023-02-07T01:07:41;101163.73;;;-2.87;70.74
61474;BME280;53694;49.784;30.150;2023-02-07T01:08:42;101168.75;;;-3.03;71.39
61474;BME280;53694;49.784;30.150;2023-02-07T01:09:44;101165.73;;;-3.18;72.04
61474;BME280;53694;49.784;30.150;2023-02-07T01:10:46;101164.55;;;-3.22;72.72
61474;BME280;53694;49.784;30.150;2023-02-07T01:11:48;101163.72;;;-3.11;72.99
61474;BME280;53694;49.784;30.150;2023-02-07T01:12:50;101166.99;;;-2.85;72.82
61474;BME280;53694;49.784;30.150;2023-02-07T01:13:52;101168.95;;;-2.57;72.11
61474;BME280;53694;49.784;30.150;2023-02-07T01:14:54;101166.42;;;-2.23;71.54
61474;BME280;53694;49.784;30.150;2023-02-07T01:15:55;101168.76;;;-1.87;70.70
61474;BME280;53694;49.784;30.150;2023-02-07T01:16:57;101163.41;;;-1.53;69.14
61474;BME280;53694;49.784;30.150;2023-02-07T01:17:59;101163.67;;;-1.21;68.32
61474;BME280;53694;49.784;30.150;2023-02-07T01:19:06;101156.63;;;-0.88;66.69
61474;BME280;53694;49.784;30.150;2023-02-07T01:20:06;101158.38;;;-0.77;65.86
61474;BME280;53694;49.784;30.150;2023-02-07T01:21:22;101165.44;;;-0.76;65.73
61474;BME280;53694;49.784;30.150;2023-02-07T01:22:25;101163.32;;;-0.91;65.87
61474;BME280;53694;49.784;30.150;2023-02-07T01:23:27;101149.71;;;-1.18;66.39
61474;BME280;53694;49.784;30.150;2023-02-07T01:24:29;101154.92;;;-1.45;67.08
61474;BME280;53694;49.784;30.150;2023-02-07T01:25:31;101156.14;;;-1.69;67.80
61474;BME280;53694;49.784;30.150;2023-02-07T01:26:33;101161.28;;;-1.96;68.52
61474;BME280;53694;49.784;30.150;2023-02-07T01:27:35;101159.73;;;-2.21;69.29
61474;BME280;53694;49.784;30.150;2023-02-07T01:28:37;101150.48;;;-2.54;70.18
61474;BME280;53694;49.784;30.150;2023-02-07T01:29:39;101155.87;;;-2.77;71.11
61474;BME280;53694;49.784;30.150;2023-02-07T01:30:42;101152.16;;;-2.99;72.03
61474;BME280;53694;49.784;30.150;2023-02-07T01:31:44;101147.38;;;-3.09;72.84
61474;BME280;53694;49.784;30.150;2023-02-07T01:32:45;101151.00;;;-3.04;73.28
61474;BME280;53694;49.784;30.150;2023-02-07T01:33:47;101151.45;;;-2.83;73.35
61474;BME280;53694;49.784;30.150;2023-02-07T01:34:48;101149.67;;;-2.54;72.82
61474;BME280;53694;49.784;30.150;2023-02-07T01:35:50;101146.40;;;-2.16;72.25
61474;BME280;53694;49.784;30.150;2023-02-07T01:36:52;101150.33;;;-1.78;71.08
61474;BME280;53694;49.784;30.150;2023-02-07T01:37:53;101149.64;;;-1.40;70.22
61474;BME280;53694;49.784;30.150;2023-02-07T01:38:55;101144.72;;;-1.09;68.68
61474;BME280;53694;49.784;30.150;2023-02-07T01:39:57;101144.34;;;-0.79;68.18
61474;BME280;53694;49.784;30.150;2023-02-07T01:40:58;101143.92;;;-0.49;67.20
61474;BME280;53694;49.784;30.150;2023-02-07T01:42:00;101139.59;;;-0.28;65.89
61474;BME280;53694;49.784;30.150;2023-02-07T01:43:01;101134.69;;;-0.31;65.45
61474;BME280;53694;49.784;30.150;2023-02-07T01:44:06;101139.40;;;-0.43;65.39
61474;BME280;53694;49.784;30.150;2023-02-07T01:45:30;101135.63;;;-0.64;65.69
61474;BME280;53694;49.784;30.150;2023-02-07T01:46:33;101131.77;;;-0.90;66.27
61474;BME280;53694;49.784;30.150;2023-02-07T01:47:36;101134.17;;;-1.28;67.13
61474;BME280;53694;49.784;30.150;2023-02-07T01:48:38;101135.09;;;-1.56;67.93
61474;BME280;53694;49.784;30.150;2023-02-07T01:49:39;101128.20;;;-1.80;68.62
61474;BME280;53694;49.784;30.150;2023-02-07T01:57:40;101138.83;;;-3.06;74.68
61474;BME280;53694;49.784;30.150;2023-02-07T01:58:43;101138.37;;;-2.91;74.46
61474;BME280;53694;49.784;30.150;2023-02-07T01:59:46;101139.72;;;-2.54;74.00
61474;BME280;53694;49.784;30.150;2023-02-07T02:00:49;101135.97;;;-2.12;73.10
61474;BME280;53694;49.784;30.150;2023-02-07T02:01:51;101134.34;;;-1.68;72.33
61474;BME280;53694;49.784;30.150;2023-02-07T02:02:53;101129.92;;;-1.23;71.17
61474;BME280;53694;49.784;30.150;2023-02-07T02:03:56;101138.07;;;-0.85;69.66
61474;BME280;53694;49.784;30.150;2023-02-07T02:04:58;101139.34;;;-0.48;68.47
61474;BME280;53694;49.784;30.150;2023-02-07T02:06:00;101140.83;;;-0.14;67.36
61474;BME280;53694;49.784;30.150;2023-02-07T02:07:03;101137.27;;;0.08;66.18
61474;BME280;53694;49.784;30.150;2023-02-07T02:08:05;101138.70;;;0.15;65.35
61474;BME280;53694;49.784;30.150;2023-02-07T02:09:13;101133.21;;;0.05;65.10
61474;BME280;53694;49.784;30.150;2023-02-07T02:10:21;101129.21;;;-0.14;65.10
61474;BME280;53694;49.784;30.150;2023-02-07T02:16:33;101133.27;;;-1.67;68.64
61474;BME280;53694;49.784;30.150;2023-02-07T02:18:53;101135.29;;;-2.19;70.44
61474;BME280;53694;49.784;30.150;2023-02-07T02:23:12;101132.95;;;-2.68;72.74
61474;BME280;53694;49.784;30.150;2023-02-07T02:33:54;101115.36;;;0.31;64.07
61474;BME280;53694;49.784;30.150;2023-02-07T02:35:06;101129.13;;;0.03;64.18
61474;BME280;53694;49.784;30.150;2023-02-07T02:38:03;101119.75;;;-0.61;65.60
61474;BME280;53694;49.784;30.150;2023-02-07T02:39:19;101115.69;;;-1.02;66.87
61474;BME280;53694;49.784;30.150;2023-02-07T02:41:36;101115.73;;;-1.69;68.89
61474;BME280;53694;49.784;30.150;2023-02-07T02:42:53;101118.46;;;-1.98;69.79
61474;BME280;53694;49.784;30.150;2023-02-07T02:44:06;101115.30;;;-2.23;70.69
61474;BME280;53694;49.784;30.150;2023-02-07T02:45:12;101112.67;;;-2.47;71.68
61474;BME280;53694;49.784;30.150;2023-02-07T02:46:24;101113.09;;;-2.67;72.49
61474;BME280;53694;49.784;30.150;2023-02-07T02:47:28;101110.77;;;-2.75;73.22
61474;BME280;53694;49.784;30.150;2023-02-07T02:48:32;101116.45;;;-2.60;73.67
61474;BME280;53694;49.784;30.150;2023-02-07T02:49:36;101117.08;;;-2.29;73.56
61474;BME280;53694;49.784;30.150;2023-02-07T02:50:43;101108.11;;;-1.89;72.98
61474;BME280;53694;49.784;30.150;2023-02-07T02:51:48;101108.81;;;-1.48;72.00
61474;BME280;53694;49.784;30.150;2023-02-07T02:52:49;101111.62;;;-1.05;70.60
61474;BME280;53694;49.784;30.150;2023-02-07T02:53:52;101104.90;;;-0.63;69.59
61474;BME280;53694;49.784;30.150;2023-02-07T02:54:54;101117.50;;;-0.25;68.44
61474;BME280;53694;49.784;30.150;2023-02-07T02:57:27;101112.69;;;0.36;65.83
61474;BME280;53694;49.784;30.150;2023-02-07T03:01:16;101121.78;;;-0.02;64.78
61474;BME280;53694;49.784;30.150;2023-02-07T03:02:25;101120.19;;;-0.47;65.62
61474;BME280;53694;49.784;30.150;2023-02-07T03:03:38;101113.21;;;-0.87;66.19
61474;BME280;53694;49.784;30.150;2023-02-07T03:10:12;101111.66;;;-2.58;72.58
61474;BME280;53694;49.784;30.150;2023-02-07T03:11:20;101104.44;;;-2.81;73.61
61474;BME280;53694;49.784;30.150;2023-02-07T03:16:20;101108.76;;;-1.99;73.61
61474;BME280;53694;49.784;30.150;2023-02-07T03:19:04;101101.23;;;-0.96;71.47
61474;BME280;53694;49.784;30.150;2023-02-07T03:20:17;101110.84;;;-0.39;69.81
61474;BME280;53694;49.784;30.150;2023-02-07T03:22:32;101099.45;;;0.35;65.77
61474;BME280;53694;49.784;30.150;2023-02-07T03:23:36;101097.66;;;0.50;64.99
61474;BME280;53694;49.784;30.150;2023-02-07T03:24:41;101103.61;;;0.47;64.85
61474;BME280;53694;49.784;30.150;2023-02-07T03:25:43;101102.39;;;0.33;64.67
61474;BME280;53694;49.784;30.150;2023-02-07T03:26:48;101096.71;;;0.03;65.13
61474;BME280;53694;49.784;30.150;2023-02-07T03:27:52;101099.91;;;-0.28;65.53
61474;BME280;53694;49.784;30.150;2023-02-07T03:28:56;101099.79;;;-0.60;66.47
61474;BME280;53694;49.784;30.150;2023-02-07T03:30:01;101099.41;;;-0.90;67.30
61474;BME280;53694;49.784;30.150;2023-02-07T03:31:04;101099.79;;;-1.20;68.18
61474;BME280;53694;49.784;30.150;2023-02-07T03:32:08;101094.75;;;-1.51;69.07
61474;BME280;53694;49.784;30.150;2023-02-07T03:33:12;101104.55;;;-1.78;70.02
61474;BME280;53694;49.784;30.150;2023-02-07T03:34:17;101099.27;;;-2.02;71.01
61474;BME280;53694;49.784;30.150;2023-02-07T03:35:32;101099.96;;;-2.23;71.79
61474;BME280;53694;49.784;30.150;2023-02-07T03:36:38;101105.38;;;-2.35;72.58
61474;BME280;53694;49.784;30.150;2023-02-07T03:37:42;101102.91;;;-2.24;73.14
61474;BME280;53694;49.784;30.150;2023-02-07T03:38:45;101099.61;;;-1.98;72.98
61474;BME280;53694;49.784;30.150;2023-02-07T03:39:47;101100.47;;;-1.64;72.44
61474;BME280;53694;49.784;30.150;2023-02-07T03:40:55;101106.41;;;-1.28;71.68
61474;BME280;53694;49.784;30.150;2023-02-07T03:42:00;101105.61;;;-0.90;70.91
61474;BME280;53694;49.784;30.150;2023-02-07T03:43:21;101105.88;;;-0.47;69.97
61474;BME280;53694;49.784;30.150;2023-02-07T03:44:25;101105.03;;;-0.04;69.01
61474;BME280;53694;49.784;30.150;2023-02-07T03:45:28;101104.63;;;0.41;67.58
61474;BME280;53694;49.784;30.150;2023-02-07T03:46:33;101093.50;;;0.70;66.31
61474;BME280;53694;49.784;30.150;2023-02-07T03:47:35;101098.39;;;0.73;65.33
61474;BME280;53694;49.784;30.150;2023-02-07T03:48:36;101095.59;;;0.63;65.00
61474;BME280;53694;49.784;30.150;2023-02-07T03:49:38;101101.41;;;0.44;64.92
61474;BME280;53694;49.784;30.150;2023-02-07T03:50:40;101097.91;;;0.17;65.04
61474;BME280;53694;49.784;30.150;2023-02-07T03:51:45;101102.20;;;-0.14;65.47
61474;BME280;53694;49.784;30.150;2023-02-07T03:52:47;101105.39;;;-0.44;66.20
61474;BME280;53694;49.784;30.150;2023-02-07T03:53:49;101099.03;;;-0.77;67.12
61474;BME280;53694;49.784;30.150;2023-02-07T03:54:50;101102.13;;;-1.07;67.88
61474;BME280;53694;49.784;30.150;2023-02-07T03:55:52;101100.62;;;-1.37;68.90
61474;BME280;53694;49.784;30.150;2023-02-07T03:56:53;101099.17;;;-1.61;69.85
61474;BME280;53694;49.784;30.150;2023-02-07T03:57:55;101093.11;;;-1.85;70.76
61474;BME280;53694;49.784;30.150;2023-02-07T03:58:56;101102.44;;;-2.05;71.71
61474;BME280;53694;49.784;30.150;2023-02-07T03:59:58;101099.40;;;-2.25;72.40
61474;BME280;53694;49.784;30.150;2023-02-07T04:01:00;101101.63;;;-2.34;73.09
61474;BME280;53694;49.784;30.150;2023-02-07T04:02:01;101109.31;;;-2.26;73.45
61474;BME280;53694;49.784;30.150;2023-02-07T04:03:03;101097.65;;;-2.03;73.44
61474;BME280;53694;49.784;30.150;2023-02-07T04:04:05;101106.33;;;-1.67;73.10
61474;BME280;53694;49.784;30.150;2023-02-07T04:05:07;101104.52;;;-1.28;72.45
61474;BME280;53694;49.784;30.150;2023-02-07T04:06:10;101111.09;;;-0.85;71.46
61474;BME280;53694;49.784;30.150;2023-02-07T04:07:11;101104.31;;;-0.43;70.19
61474;BME280;53694;49.784;30.150;2023-02-07T04:08:13;101118.23;;;-0.08;68.86
61474;BME280;53694;49.784;30.150;2023-02-07T04:09:14;101106.40;;;0.26;67.60
61474;BME280;53694;49.784;30.150;2023-02-07T04:10:16;101098.20;;;0.47;65.41
61474;BME280;53694;49.784;30.150;2023-02-07T04:11:18;101109.89;;;0.58;65.11
61474;BME280;53694;49.784;30.150;2023-02-07T04:12:19;101116.92;;;0.59;65.51
61474;BME280;53694;49.784;30.150;2023-02-07T04:13:21;101113.34;;;0.48;65.71
61474;BME280;53694;49.784;30.150;2023-02-07T04:14:22;101113.73;;;0.30;65.92
61474;BME280;53694;49.784;30.150;2023-02-07T04:15:24;101113.23;;;0.06;66.01
61474;BME280;53694;49.784;30.150;2023-02-07T04:16:26;101119.13;;;-0.24;66.44
61474;BME280;53694;49.784;30.150;2023-02-07T04:17:28;101116.07;;;-0.55;67.04
61474;BME280;53694;49.784;30.150;2023-02-07T04:18:29;101115.42;;;-0.84;67.92
61474;BME280;53694;49.784;30.150;2023-02-07T04:19:31;101121.52;;;-1.10;68.81
61474;BME280;53694;49.784;30.150;2023-02-07T04:20:33;101114.68;;;-1.35;69.65
61474;BME280;53694;49.784;30.150;2023-02-07T04:21:34;101126.41;;;-1.58;70.40
61474;BME280;53694;49.784;30.150;2023-02-07T04:22:36;101128.20;;;-1.80;71.13
61474;BME280;53694;49.784;30.150;2023-02-07T04:23:38;101121.16;;;-1.98;71.84
61474;BME280;53694;49.784;30.150;2023-02-07T04:24:39;101129.86;;;-2.08;72.57
61474;BME280;53694;49.784;30.150;2023-02-07T04:25:41;101122.22;;;-1.99;72.74
61474;BME280;53694;49.784;30.150;2023-02-07T04:26:42;101118.58;;;-1.76;72.51
61474;BME280;53694;49.784;30.150;2023-02-07T04:27:44;101123.42;;;-1.44;72.45
61474;BME280;53694;49.784;30.150;2023-02-07T04:28:45;101120.20;;;-1.08;71.52
61474;BME280;53694;49.784;30.150;2023-02-07T04:29:47;101118.83;;;-0.71;70.51
61474;BME280;53694;49.784;30.150;2023-02-07T04:30:48;101123.08;;;-0.32;69.69
61474;BME280;53694;49.784;30.150;2023-02-07T04:31:50;101116.73;;;0.07;68.62
61474;BME280;53694;49.784;30.150;2023-02-07T04:32:51;101118.71;;;0.43;67.47
61474;BME280;53694;49.784;30.150;2023-02-07T04:33:53;101107.53;;;0.67;66.17
61474;BME280;53694;49.784;30.150;2023-02-07T04:34:55;101114.34;;;0.74;65.46
61474;BME280;53694;49.784;30.150;2023-02-07T04:35:58;101109.72;;;0.70;65.16
61474;BME280;53694;49.784;30.150;2023-02-07T04:37:00;101120.94;;;0.52;65.15
61474;BME280;53694;49.784;30.150;2023-02-07T04:38:02;101117.48;;;0.29;65.22
61474;BME280;53694;49.784;30.150;2023-02-07T04:39:03;101124.48;;;-0.02;65.69
61474;BME280;53694;49.784;30.150;2023-02-07T04:40:06;101118.49;;;-0.31;66.39
61474;BME280;53694;49.784;30.150;2023-02-07T04:41:08;101119.75;;;-0.61;67.00
61474;BME280;53694;49.784;30.150;2023-02-07T04:42:09;101124.48;;;-0.90;67.69
61474;BME280;53694;49.784;30.150;2023-02-07T04:43:11;101123.83;;;-1.19;68.60
61474;BME280;53694;49.784;30.150;2023-02-07T04:44:12;101125.28;;;-1.45;69.54
61474;BME280;53694;49.784;30.150;2023-02-07T04:45:14;101130.58;;;-1.67;70.39
61474;BME280;53694;49.784;30.150;2023-02-07T04:46:16;101121.32;;;-1.88;71.20
61474;BME280;53694;49.784;30.150;2023-02-07T04:47:17;101125.05;;;-2.06;72.07
61474;BME280;53694;49.784;30.150;2023-02-07T04:48:18;101133.50;;;-2.14;72.67
61474;BME280;53694;49.784;30.150;2023-02-07T04:49:20;101132.30;;;-2.06;72.96
61474;BME280;53694;49.784;30.150;2023-02-07T04:50:22;101128.11;;;-1.85;72.94
61474;BME280;53694;49.784;30.150;2023-02-07T04:51:23;101125.37;;;-1.57;72.59
61474;BME280;53694;49.784;30.150;2023-02-07T04:52:25;101121.36;;;-1.20;71.90
61474;BME280;53694;49.784;30.150;2023-02-07T04:53:26;101135.11;;;-0.83;71.04
61474;BME280;53694;49.784;30.150;2023-02-07T04:54:28;101131.83;;;-0.46;69.95
61474;BME280;53694;49.784;30.150;2023-02-07T04:55:29;101134.93;;;-0.11;69.04
61474;BME280;53694;49.784;30.150;2023-02-07T04:56:31;101127.44;;;0.23;67.89
61474;BME280;53694;49.784;30.150;2023-02-07T04:57:32;101123.58;;;0.46;66.82
61474;BME280;53694;49.784;30.150;2023-02-07T04:58:34;101124.70;;;0.50;65.90
61474;BME280;53694;49.784;30.150;2023-02-07T04:59:36;101126.78;;;0.38;65.96
61474;BME280;53694;49.784;30.150;2023-02-07T05:00:37;101124.93;;;0.17;66.25
61474;BME280;53694;49.784;30.150;2023-02-07T05:01:39;101132.77;;;-0.09;66.65
61474;BME280;53694;49.784;30.150;2023-02-07T05:02:40;101127.61;;;-0.37;67.12
61474;BME280;53694;49.784;30.150;2023-02-07T05:03:42;101128.86;;;-0.67;67.82
61474;BME280;53694;49.784;30.150;2023-02-07T05:04:43;101124.68;;;-0.96;68.68
61474;BME280;53694;49.784;30.150;2023-02-07T05:05:45;101128.56;;;-1.26;69.69
61474;BME280;53694;49.784;30.150;2023-02-07T05:06:46;101132.47;;;-1.51;70.54
61474;BME280;53694;49.784;30.150;2023-02-07T05:07:48;101125.59;;;-1.75;71.40
61474;BME280;53694;49.784;30.150;2023-02-07T05:08:50;101130.60;;;-1.95;72.18
61474;BME280;53694;49.784;30.150;2023-02-07T05:09:51;101129.61;;;-2.06;72.91
61474;BME280;53694;49.784;30.150;2023-02-07T05:10:54;101131.33;;;-2.00;73.07
61474;BME280;53694;49.784;30.150;2023-02-07T05:11:56;101135.72;;;-1.82;73.01
61474;BME280;53694;49.784;30.150;2023-02-07T05:12:57;101138.03;;;-1.57;72.58
61474;BME280;53694;49.784;30.150;2023-02-07T05:13:58;101126.93;;;-1.27;72.10
61474;BME280;53694;49.784;30.150;2023-02-07T05:15:00;101139.30;;;-0.92;71.49
61474;BME280;53694;49.784;30.150;2023-02-07T05:16:03;101144.09;;;-0.56;70.70
61474;BME280;53694;49.784;30.150;2023-02-07T05:17:04;101140.46;;;-0.22;69.88
61474;BME280;53694;49.784;30.150;2023-02-07T05:18:06;101141.09;;;0.12;68.92
61474;BME280;53694;49.784;30.150;2023-02-07T05:19:07;101146.75;;;0.37;67.19
61474;BME280;53694;49.784;30.150;2023-02-07T05:20:10;101144.19;;;0.53;66.63
61474;BME280;53694;49.784;30.150;2023-02-07T05:21:12;101138.48;;;0.49;66.60
61474;BME280;53694;49.784;30.150;2023-02-07T05:22:13;101146.55;;;0.44;66.42
61474;BME280;53694;49.784;30.150;2023-02-07T05:23:15;101153.60;;;0.18;65.86
61474;BME280;53694;49.784;30.150;2023-02-07T05:24:16;101149.19;;;-0.15;66.92
61474;BME280;53694;49.784;30.150;2023-02-07T05:25:18;101150.20;;;-0.43;67.85
61474;BME280;53694;49.784;30.150;2023-02-07T05:26:20;101154.64;;;-0.76;68.30
61474;BME280;53694;49.784;30.150;2023-02-07T05:27:21;101155.02;;;-1.06;69.14
61474;BME280;53694;49.784;30.150;2023-02-07T05:28:23;101151.59;;;-1.35;70.06
61474;BME280;53694;49.784;30.150;2023-02-07T05:29:24;101157.12;;;-1.59;70.97
61474;BME280;53694;49.784;30.150;2023-02-07T05:30:26;101160.04;;;-1.77;71.74
61474;BME280;53694;49.784;30.150;2023-02-07T05:31:28;101159.02;;;-1.88;72.40
61474;BME280;53694;49.784;30.150;2023-02-07T05:32:29;101160.52;;;-1.80;72.64
61474;BME280;53694;49.784;30.150;2023-02-07T05:33:31;101155.97;;;-1.63;72.38
61474;BME280;53694;49.784;30.150;2023-02-07T05:34:33;101156.40;;;-1.37;71.95
61474;BME280;53694;49.784;30.150;2023-02-07T05:35:40;101158.27;;;-1.04;71.46
61474;BME280;53694;49.784;30.150;2023-02-07T05:36:42;101162.31;;;-0.68;70.83
61474;BME280;53694;49.784;30.150;2023-02-07T05:37:43;101166.02;;;-0.30;69.59
61474;BME280;53694;49.784;30.150;2023-02-07T05:38:45;101163.69;;;0.01;68.29
61474;BME280;53694;49.784;30.150;2023-02-07T05:39:46;101175.35;;;0.33;68.12
61474;BME280;53694;49.784;30.150;2023-02-07T05:40:48;101168.25;;;0.54;66.70
61474;BME280;53694;49.784;30.150;2023-02-07T05:41:49;101168.05;;;0.61;66.32
61474;BME280;53694;49.784;30.150;2023-02-07T05:42:51;101169.60;;;0.52;65.94
61474;BME280;53694;49.784;30.150;2023-02-07T05:43:52;101175.35;;;0.33;65.85
61474;BME280;53694;49.784;30.150;2023-02-07T05:44:54;101162.66;;;0.07;66.01
61474;BME280;53694;49.784;30.150;2023-02-07T05:45:55;101167.45;;;-0.22;66.66
61474;BME280;53694;49.784;30.150;2023-02-07T05:46:57;101169.52;;;-0.52;67.38
61474;BME280;53694;49.784;30.150;2023-02-07T05:47:59;101168.63;;;-0.79;68.17
61474;BME280;53694;49.784;30.150;2023-02-07T05:49:00;101164.97;;;-1.07;68.94
61474;BME280;53694;49.784;30.150;2023-02-07T05:50:03;101171.02;;;-1.33;69.81
61474;BME280;53694;49.784;30.150;2023-02-07T05:51:05;101173.06;;;-1.57;70.73
61474;BME280;53694;49.784;30.150;2023-02-07T05:52:06;101179.11;;;-1.79;71.48
61474;BME280;53694;49.784;30.150;2023-02-07T05:53:09;101175.25;;;-1.99;72.41
61474;BME280;53694;49.784;30.150;2023-02-07T05:54:11;101178.32;;;-2.08;73.14
61474;BME280;53694;49.784;30.150;2023-02-07T05:55:12;101188.72;;;-1.99;73.47
61474;BME280;53694;49.784;30.150;2023-02-07T05:56:14;101185.56;;;-1.80;73.07
61474;BME280;53694;49.784;30.150;2023-02-07T05:57:16;101181.95;;;-1.57;72.60
61474;BME280;53694;49.784;30.150;2023-02-07T05:58:18;101181.98;;;-1.23;72.15
61474;BME280;53694;49.784;30.150;2023-02-07T05:59:19;101180.90;;;-0.88;71.31
61474;BME280;53694;49.784;30.150;2023-02-07T06:00:21;101188.93;;;-0.55;70.55
61474;BME280;53694;49.784;30.150;2023-02-07T06:01:24;101183.11;;;-0.24;69.13
61474;BME280;53694;49.784;30.150;2023-02-07T06:02:25;101182.07;;;0.04;68.20
61474;BME280;53694;49.784;30.150;2023-02-07T06:03:27;101188.32;;;0.31;67.30
61474;BME280;53694;49.784;30.150;2023-02-07T06:05:44;101184.16;;;0.50;66.52
61474;BME280;53694;49.784;30.150;2023-02-07T08:06:48;101268.74;;;-3.24;82.54
61474;BME280;53694;49.784;30.150;2023-02-07T08:07:49;101276.23;;;-3.26;81.87
61474;BME280;53694;49.784;30.150;2023-02-07T08:08:51;101275.91;;;-3.18;81.12
61474;BME280;53694;49.784;30.150;2023-02-07T08:09:52;101270.89;;;-3.03;80.80
61474;BME280;53694;49.784;30.150;2023-02-07T08:10:54;101273.28;;;-2.71;80.38